sensor_id;sensor_type;location;lat;lon;timestamp;pressure;altitude;pressure_sealevel;temperature;humidity
50592;BME280;36548;50.506;30.834;2023-02-23T00:00:46;100620.24;;;-2.95;52.50
50592;BME280;36548;50.506;30.834;2023-02-23T00:01:57;100623.72;;;-2.86;52.64
50592;BME280;36548;50.506;30.834;2023-02-23T00:03:14;100619.28;;;-2.74;52.01
50592;BME280;36548;50.506;30.834;2023-02-23T00:04:24;100621.10;;;-2.88;52.10
50592;BME280;36548;50.506;30.834;2023-02-23T00:05:35;100621.11;;;-2.96;52.24
50592;BME280;36548;50.506;30.834;2023-02-23T00:06:44;100621.96;;;-2.87;52.45
50592;BME280;36548;50.506;30.834;2023-02-23T00:07:53;100618.45;;;-2.85;52.32
50592;BME280;36548;50.506;30.834;2023-02-23T00:09:03;100624.61;;;-2.84;51.96
50592;BME280;36548;50.506;30.834;2023-02-23T00:10:24;100617.57;;;-2.76;51.90
50592;BME280;36548;50.506;30.834;2023-02-23T00:11:35;100622.84;;;-2.84;52.12
50592;BME280;36548;50.506;30.834;2023-02-23T00:12:44;100620.20;;;-2.81;52.14
50592;BME280;36548;50.506;30.834;2023-02-23T00:13:53;100626.34;;;-2.80;51.87
50592;BME280;36548;50.506;30.834;2023-02-23T00:15:05;100626.34;;;-2.86;51.93
50592;BME280;36548;50.506;30.834;2023-02-23T00:16:19;100630.75;;;-2.88;52.07
50592;BME280;36548;50.506;30.834;2023-02-23T00:17:28;100633.37;;;-2.93;52.11
50592;BME280;36548;50.506;30.834;2023-02-23T00:18:47;100628.99;;;-2.89;52.27
50592;BME280;36548;50.506;30.834;2023-02-23T00:19:59;100631.66;;;-3.03;52.28
50592;BME280;36548;50.506;30.834;2023-02-23T00:21:11;100630.80;;;-3.04;52.44
50592;BME280;36548;50.506;30.834;2023-02-23T00:22:24;100632.56;;;-3.12;52.35
50592;BME280;36548;50.506;30.834;2023-02-23T00:23:34;100633.45;;;-3.18;52.52
50592;BME280;36548;50.506;30.834;2023-02-23T00:24:46;100629.10;;;-3.33;52.73
50592;BME280;36548;50.506;30.834;2023-02-23T00:25:58;100628.23;;;-3.39;53.08
50592;BME280;36548;50.506;30.834;2023-02-23T00:27:09;100641.36;;;-3.41;53.57
50592;BME280;36548;50.506;30.834;2023-02-23T00:28:21;100641.34;;;-3.46;53.46
50592;BME280;36548;50.506;30.834;2023-02-23T00:29:30;100637.85;;;-3.45;53.48
50592;BME280;36548;50.506;30.834;2023-02-23T00:30:42;100634.34;;;-3.40;53.69
50592;BME280;36548;50.506;30.834;2023-02-23T00:31:53;100637.88;;;-3.63;53.91
50592;BME280;36548;50.506;30.834;2023-02-23T00:33:09;100636.13;;;-3.56;54.16
50592;BME280;36548;50.506;30.834;2023-02-23T00:34:20;100650.10;;;-3.67;54.31
50592;BME280;36548;50.506;30.834;2023-02-23T00:35:32;100645.73;;;-3.71;54.29
50592;BME280;36548;50.506;30.834;2023-02-23T00:36:41;100647.50;;;-3.62;54.37
50592;BME280;36548;50.506;30.834;2023-02-23T00:37:53;100647.48;;;-3.90;54.72
50592;BME280;36548;50.506;30.834;2023-02-23T00:39:05;100647.48;;;-3.82;55.02
50592;BME280;36548;50.506;30.834;2023-02-23T00:40:22;100643.98;;;-3.64;54.96
50592;BME280;36548;50.506;30.834;2023-02-23T00:41:33;100643.97;;;-3.87;54.83
50592;BME280;36548;50.506;30.834;2023-02-23T00:42:43;100641.38;;;-3.72;54.95
50592;BME280;36548;50.506;30.834;2023-02-23T00:45:13;100639.62;;;-3.88;54.92
50592;BME280;36548;50.506;30.834;2023-02-23T00:46:27;100645.73;;;-3.92;55.10
50592;BME280;36548;50.506;30.834;2023-02-23T00:47:41;100650.09;;;-3.79;55.17
50592;BME280;36548;50.506;30.834;2023-02-23T00:48:58;100653.61;;;-3.79;54.97
50592;BME280;36548;50.506;30.834;2023-02-23T00:50:14;100645.73;;;-3.91;55.00
50592;BME280;36548;50.506;30.834;2023-02-23T00:51:25;100655.34;;;-4.02;55.19
50592;BME280;36548;50.506;30.834;2023-02-23T00:52:38;100652.69;;;-4.05;55.44
50592;BME280;36548;50.506;30.834;2023-02-23T00:53:47;100655.33;;;-3.99;55.39
50592;BME280;36548;50.506;30.834;2023-02-23T00:54:59;100658.84;;;-3.96;55.56
50592;BME280;36548;50.506;30.834;2023-02-23T00:56:10;100658.82;;;-4.06;55.31
50592;BME280;36548;50.506;30.834;2023-02-23T00:57:22;100663.17;;;-4.16;55.64
50592;BME280;36548;50.506;30.834;2023-02-23T00:58:32;100661.38;;;-4.23;56.19
50592;BME280;36548;50.506;30.834;2023-02-23T00:59:43;100661.38;;;-4.28;56.33
50592;BME280;36548;50.506;30.834;2023-02-23T01:00:53;100658.76;;;-4.25;56.40
50592;BME280;36548;50.506;30.834;2023-02-23T01:02:02;100667.52;;;-4.20;56.53
50592;BME280;36548;50.506;30.834;2023-02-23T01:03:12;100666.63;;;-4.28;56.62
50592;BME280;36548;50.506;30.834;2023-02-23T01:04:21;100664.03;;;-4.22;56.72
50592;BME280;36548;50.506;30.834;2023-02-23T01:05:34;100663.14;;;-4.29;56.79
50592;BME280;36548;50.506;30.834;2023-02-23T01:06:42;100661.38;;;-4.36;57.19
50592;BME280;36548;50.506;30.834;2023-02-23T01:07:56;100662.28;;;-4.21;57.37
50592;BME280;36548;50.506;30.834;2023-02-23T01:09:07;100667.48;;;-4.34;57.32
50592;BME280;36548;50.506;30.834;2023-02-23T01:10:19;100661.34;;;-4.37;57.50
50592;BME280;36548;50.506;30.834;2023-02-23T01:11:29;100658.76;;;-4.30;57.72
50592;BME280;36548;50.506;30.834;2023-02-23T01:12:41;100657.00;;;-4.35;57.49
50592;BME280;36548;50.506;30.834;2023-02-23T01:13:54;100663.09;;;-4.39;57.72
50592;BME280;36548;50.506;30.834;2023-02-23T01:15:07;100663.10;;;-4.33;57.67
50592;BME280;36548;50.506;30.834;2023-02-23T01:16:21;100671.82;;;-4.42;57.61
50592;BME280;36548;50.506;30.834;2023-02-23T01:17:30;100659.62;;;-4.38;57.28
50592;BME280;36548;50.506;30.834;2023-02-23T01:18:41;100657.00;;;-4.31;56.99
50592;BME280;36548;50.506;30.834;2023-02-23T01:19:51;100668.38;;;-4.24;56.88
50592;BME280;36548;50.506;30.834;2023-02-23T01:21:02;100664.90;;;-4.18;56.60
50592;BME280;36548;50.506;30.834;2023-02-23T01:22:13;100667.55;;;-4.14;56.49
50592;BME280;36548;50.506;30.834;2023-02-23T01:23:23;100664.90;;;-4.15;55.86
50592;BME280;36548;50.506;30.834;2023-02-23T01:24:31;100673.66;;;-4.15;56.25
50592;BME280;36548;50.506;30.834;2023-02-23T01:25:42;100676.28;;;-4.15;56.33
50592;BME280;36548;50.506;30.834;2023-02-23T01:26:51;100672.80;;;-4.09;56.53
50592;BME280;36548;50.506;30.834;2023-02-23T01:28:01;100676.25;;;-4.21;56.68
50592;BME280;36548;50.506;30.834;2023-02-23T01:29:14;100675.42;;;-4.12;56.95
50592;BME280;36548;50.506;30.834;2023-02-23T01:30:26;100673.66;;;-4.13;56.83
50592;BME280;36548;50.506;30.834;2023-02-23T01:31:37;100678.91;;;-4.15;57.01
50592;BME280;36548;50.506;30.834;2023-02-23T01:32:48;100688.49;;;-4.15;57.16
50592;BME280;36548;50.506;30.834;2023-02-23T01:34:02;100684.15;;;-4.10;57.12
50592;BME280;36548;50.506;30.834;2023-02-23T01:35:11;100685.91;;;-4.04;57.12
50592;BME280;36548;50.506;30.834;2023-02-23T01:36:22;100686.80;;;-3.99;57.08
50592;BME280;36548;50.506;30.834;2023-02-23T01:37:36;100693.80;;;-3.97;56.76
50592;BME280;36548;50.506;30.834;2023-02-23T01:38:49;100710.41;;;-4.01;56.52
50592;BME280;36548;50.506;30.834;2023-02-23T01:39:58;100693.77;;;-4.01;56.50
50592;BME280;36548;50.506;30.834;2023-02-23T01:41:08;100698.16;;;-4.00;56.70
50592;BME280;36548;50.506;30.834;2023-02-23T01:42:24;100692.05;;;-3.91;56.65
50592;BME280;36548;50.506;30.834;2023-02-23T01:43:34;100698.16;;;-3.99;56.90
50592;BME280;36548;50.506;30.834;2023-02-23T01:45:59;100689.42;;;-3.99;56.60
50592;BME280;36548;50.506;30.834;2023-02-23T01:47:12;100693.77;;;-4.01;56.61
50592;BME280;36548;50.506;30.834;2023-02-23T01:48:35;100695.53;;;-4.06;56.60
50592;BME280;36548;50.506;30.834;2023-02-23T01:49:46;100703.40;;;-4.05;56.74
50592;BME280;36548;50.506;30.834;2023-02-23T01:51:15;100693.77;;;-4.09;56.75
50592;BME280;36548;50.506;30.834;2023-02-23T01:52:27;100699.88;;;-4.12;56.64
50592;BME280;36548;50.506;30.834;2023-02-23T01:53:39;100700.74;;;-4.09;56.70
50592;BME280;36548;50.506;30.834;2023-02-23T01:54:52;100699.84;;;-4.29;56.77
50592;BME280;36548;50.506;30.834;2023-02-23T01:56:12;100698.03;;;-4.39;57.11
50592;BME280;36548;50.506;30.834;2023-02-23T01:57:22;100708.52;;;-4.37;57.18
50592;BME280;36548;50.506;30.834;2023-02-23T01:58:34;100706.75;;;-4.43;57.57
50592;BME280;36548;50.506;30.834;2023-02-23T01:59:45;100706.75;;;-4.45;57.54
50592;BME280;36548;50.506;30.834;2023-02-23T02:00:58;100708.50;;;-4.48;57.43
50592;BME280;36548;50.506;30.834;2023-02-23T02:02:10;100714.59;;;-4.49;57.39
50592;BME280;36548;50.506;30.834;2023-02-23T02:03:28;100712.84;;;-4.49;57.73
50592;BME280;36548;50.506;30.834;2023-02-23T02:04:41;100713.70;;;-4.51;57.60
50592;BME280;36548;50.506;30.834;2023-02-23T02:05:54;100705.83;;;-4.56;57.90
50592;BME280;36548;50.506;30.834;2023-02-23T02:07:05;100718.08;;;-4.53;57.52
50592;BME280;36548;50.506;30.834;2023-02-23T02:08:16;100714.59;;;-4.54;57.83
50592;BME280;36548;50.506;30.834;2023-02-23T02:09:27;100723.37;;;-4.42;57.87
50592;BME280;36548;50.506;30.834;2023-02-23T02:10:39;100721.55;;;-4.54;57.65
50592;BME280;36548;50.506;30.834;2023-02-23T02:11:48;100718.98;;;-4.50;57.80
50592;BME280;36548;50.506;30.834;2023-02-23T02:13:08;100720.76;;;-4.38;57.60
50592;BME280;36548;50.506;30.834;2023-02-23T02:14:29;100723.37;;;-4.44;57.88
50592;BME280;36548;50.506;30.834;2023-02-23T02:17:30;100734.70;;;-4.45;57.80
50592;BME280;36548;50.506;30.834;2023-02-23T02:18:50;100738.19;;;-4.48;57.73
50592;BME280;36548;50.506;30.834;2023-02-23T02:26:16;100740.75;;;-4.57;57.88
50592;BME280;36548;50.506;30.834;2023-02-23T02:28:56;100736.41;;;-4.58;58.15
50592;BME280;36548;50.506;30.834;2023-02-23T02:41:48;100744.27;;;-4.56;57.93
50592;BME280;36548;50.506;30.834;2023-02-23T02:43:17;100746.04;;;-4.51;58.13
50592;BME280;36548;50.506;30.834;2023-02-23T02:44:40;100753.85;;;-4.55;57.79
50592;BME280;36548;50.506;30.834;2023-02-23T02:47:11;100750.38;;;-4.53;57.49
50592;BME280;36548;50.506;30.834;2023-02-23T02:48:41;100748.61;;;-4.55;57.50
50592;BME280;36548;50.506;30.834;2023-02-23T02:51:20;100752.97;;;-4.60;57.72
50592;BME280;36548;50.506;30.834;2023-02-23T02:54:13;100749.58;;;-4.38;57.48
50592;BME280;36548;50.506;30.834;2023-02-23T02:55:25;100754.77;;;-4.50;57.32
50592;BME280;36548;50.506;30.834;2023-02-23T02:56:39;100752.92;;;-4.65;57.29
50592;BME280;36548;50.506;30.834;2023-02-23T02:57:52;100758.22;;;-4.59;57.77
50592;BME280;36548;50.506;30.834;2023-02-23T02:59:13;100754.69;;;-4.66;57.54
50592;BME280;36548;50.506;30.834;2023-02-23T03:00:45;100759.02;;;-4.69;57.62
50592;BME280;36548;50.506;30.834;2023-02-23T03:02:18;100752.91;;;-4.70;57.59
50592;BME280;36548;50.506;30.834;2023-02-23T03:03:45;100760.77;;;-4.71;57.73
50592;BME280;36548;50.506;30.834;2023-02-23T03:05:19;100761.67;;;-4.68;58.04
50592;BME280;36548;50.506;30.834;2023-02-23T03:06:52;100759.01;;;-4.71;57.75
50592;BME280;36548;50.506;30.834;2023-02-23T03:14:02;100766.02;;;-4.65;57.69
50592;BME280;36548;50.506;30.834;2023-02-23T03:17:32;100766.86;;;-4.72;57.88
50592;BME280;36548;50.506;30.834;2023-02-23T03:20:40;100775.56;;;-4.76;57.59
50592;BME280;36548;50.506;30.834;2023-02-23T03:22:24;100781.64;;;-4.82;57.72
50592;BME280;36548;50.506;30.834;2023-02-23T03:24:19;100783.41;;;-4.80;58.13
50592;BME280;36548;50.506;30.834;2023-02-23T03:25:50;100786.03;;;-4.78;58.00
50592;BME280;36548;50.506;30.834;2023-02-23T03:31:03;100787.62;;;-4.99;58.25
50592;BME280;36548;50.506;30.834;2023-02-23T03:32:47;100783.20;;;-5.07;58.44
50592;BME280;36548;50.506;30.834;2023-02-23T03:34:19;100785.80;;;-5.10;58.60
50592;BME280;36548;50.506;30.834;2023-02-23T03:35:52;100791.88;;;-5.16;58.74
50592;BME280;36548;50.506;30.834;2023-02-23T03:37:29;100798.88;;;-5.14;58.87
50592;BME280;36548;50.506;30.834;2023-02-23T03:39:11;100800.49;;;-5.25;59.01
50592;BME280;36548;50.506;30.834;2023-02-23T03:40:41;100792.70;;;-5.20;59.10
50592;BME280;36548;50.506;30.834;2023-02-23T03:42:19;100790.21;;;-5.05;59.03
50592;BME280;36548;50.506;30.834;2023-02-23T03:43:51;100790.13;;;-5.12;58.96
50592;BME280;36548;50.506;30.834;2023-02-23T03:45:22;100793.67;;;-5.07;58.80
50592;BME280;36548;50.506;30.834;2023-02-23T03:46:52;100794.59;;;-5.04;58.52
50592;BME280;36548;50.506;30.834;2023-02-23T03:48:22;100797.13;;;-5.11;58.39
50592;BME280;36548;50.506;30.834;2023-02-23T03:49:53;100804.99;;;-5.10;58.88
50592;BME280;36548;50.506;30.834;2023-02-23T03:51:24;100799.73;;;-5.15;58.50
50592;BME280;36548;50.506;30.834;2023-02-23T03:52:55;100797.13;;;-5.11;58.63
50592;BME280;36548;50.506;30.834;2023-02-23T03:54:47;100795.39;;;-5.09;58.44
50592;BME280;36548;50.506;30.834;2023-02-23T03:56:14;100802.25;;;-5.25;58.70
50592;BME280;36548;50.506;30.834;2023-02-23T03:57:44;100804.00;;;-5.26;58.92
50592;BME280;36548;50.506;30.834;2023-02-23T03:59:14;100803.94;;;-5.31;58.71
50592;BME280;36548;50.506;30.834;2023-02-23T04:00:47;100799.64;;;-5.24;58.90
50592;BME280;36548;50.506;30.834;2023-02-23T04:02:16;100804.83;;;-5.32;58.74
50592;BME280;36548;50.506;30.834;2023-02-23T04:03:47;100810.89;;;-5.36;58.91
50592;BME280;36548;50.506;30.834;2023-02-23T04:05:17;100809.11;;;-5.40;58.96
50592;BME280;36548;50.506;30.834;2023-02-23T04:06:47;100805.56;;;-5.43;59.24
50592;BME280;36548;50.506;30.834;2023-02-23T04:08:24;100800.33;;;-5.45;59.62
50592;BME280;36548;50.506;30.834;2023-02-23T04:09:53;100803.69;;;-5.55;59.74
50592;BME280;36548;50.506;30.834;2023-02-23T04:11:26;100806.44;;;-5.43;59.90
50592;BME280;36548;50.506;30.834;2023-02-23T04:13:03;100806.45;;;-5.41;59.59
50592;BME280;36548;50.506;30.834;2023-02-23T04:14:30;100810.89;;;-5.36;59.31
50592;BME280;36548;50.506;30.834;2023-02-23T04:16:02;100807.47;;;-5.27;59.27
50592;BME280;36548;50.506;30.834;2023-02-23T04:17:11;100812.67;;;-5.32;59.45
50592;BME280;36548;50.506;30.834;2023-02-23T04:18:29;100805.73;;;-5.23;59.18
50592;BME280;36548;50.506;30.834;2023-02-23T04:20:58;100805.86;;;-5.09;58.79
50592;BME280;36548;50.506;30.834;2023-02-23T04:22:09;100809.22;;;-5.27;58.70
50592;BME280;36548;50.506;30.834;2023-02-23T04:23:19;100812.73;;;-5.22;58.94
50592;BME280;36548;50.506;30.834;2023-02-23T04:24:31;100812.70;;;-5.27;58.69
50592;BME280;36548;50.506;30.834;2023-02-23T04:25:40;100816.13;;;-5.34;59.02
50592;BME280;36548;50.506;30.834;2023-02-23T04:26:49;100812.59;;;-5.38;59.00
50592;BME280;36548;50.506;30.834;2023-02-23T04:27:58;100813.44;;;-5.40;59.06
50592;BME280;36548;50.506;30.834;2023-02-23T04:29:08;100813.46;;;-5.37;59.09
50592;BME280;36548;50.506;30.834;2023-02-23T04:30:19;100809.05;;;-5.43;59.35
50592;BME280;36548;50.506;30.834;2023-02-23T04:31:30;100814.34;;;-5.40;59.38
50592;BME280;36548;50.506;30.834;2023-02-23T04:32:40;100814.23;;;-5.49;59.60
50592;BME280;36548;50.506;30.834;2023-02-23T04:33:50;100822.06;;;-5.52;59.54
50592;BME280;36548;50.506;30.834;2023-02-23T04:34:59;100820.15;;;-5.67;59.51
50592;BME280;36548;50.506;30.834;2023-02-23T04:36:11;100824.45;;;-5.71;59.65
50592;BME280;36548;50.506;30.834;2023-02-23T04:37:25;100821.98;;;-5.57;59.81
50592;BME280;36548;50.506;30.834;2023-02-23T04:38:35;100827.84;;;-5.81;59.83
50592;BME280;36548;50.506;30.834;2023-02-23T04:39:44;100833.13;;;-5.75;60.13
50592;BME280;36548;50.506;30.834;2023-02-23T04:40:56;100828.78;;;-5.76;60.00
50592;BME280;36548;50.506;30.834;2023-02-23T04:42:06;100828.81;;;-5.73;60.04
50592;BME280;36548;50.506;30.834;2023-02-23T04:43:15;100830.57;;;-5.72;60.04
50592;BME280;36548;50.506;30.834;2023-02-23T04:44:24;100834.98;;;-5.68;60.03
50592;BME280;36548;50.506;30.834;2023-02-23T04:45:35;100830.45;;;-5.81;59.70
50592;BME280;36548;50.506;30.834;2023-02-23T04:46:44;100835.59;;;-5.87;59.78
50592;BME280;36548;50.506;30.834;2023-02-23T04:47:54;100837.50;;;-5.74;60.15
50592;BME280;36548;50.506;30.834;2023-02-23T04:49:09;100843.67;;;-5.69;59.63
50592;BME280;36548;50.506;30.834;2023-02-23T04:50:21;100838.25;;;-5.86;59.74
50592;BME280;36548;50.506;30.834;2023-02-23T04:51:31;100841.88;;;-5.74;60.03
50592;BME280;36548;50.506;30.834;2023-02-23T04:52:41;100842.84;;;-5.65;60.06
50592;BME280;36548;50.506;30.834;2023-02-23T04:53:51;100849.73;;;-5.73;59.35
50592;BME280;36548;50.506;30.834;2023-02-23T04:55:00;100846.34;;;-5.62;59.56
50592;BME280;36548;50.506;30.834;2023-02-23T04:56:09;100838.44;;;-5.69;59.12
50592;BME280;36548;50.506;30.834;2023-02-23T04:57:20;100848.09;;;-5.63;59.07
50592;BME280;36548;50.506;30.834;2023-02-23T04:58:29;100848.08;;;-5.65;58.99
50592;BME280;36548;50.506;30.834;2023-02-23T04:59:40;100846.33;;;-5.64;58.73
50592;BME280;36548;50.506;30.834;2023-02-23T05:01:03;100852.54;;;-5.54;58.87
50592;BME280;36548;50.506;30.834;2023-02-23T05:02:09;100849.88;;;-5.60;58.96
50592;BME280;36548;50.506;30.834;2023-02-23T05:03:19;100842.91;;;-5.58;58.78
50592;BME280;36548;50.506;30.834;2023-02-23T05:04:34;100849.23;;;-5.38;58.82
50592;BME280;36548;50.506;30.834;2023-02-23T05:05:44;100854.40;;;-5.45;58.43
50592;BME280;36548;50.506;30.834;2023-02-23T05:06:52;100857.89;;;-5.43;58.39
50592;BME280;36548;50.506;30.834;2023-02-23T05:08:08;100845.99;;;-5.14;58.21
50592;BME280;36548;50.506;30.834;2023-02-23T05:09:17;100853.90;;;-5.06;58.13
50592;BME280;36548;50.506;30.834;2023-02-23T05:10:32;100851.58;;;-4.72;57.22
50592;BME280;36548;50.506;30.834;2023-02-23T05:11:43;100851.64;;;-4.59;57.17
50592;BME280;36548;50.506;30.834;2023-02-23T05:12:51;100858.73;;;-4.45;55.60
50592;BME280;36548;50.506;30.834;2023-02-23T05:14:00;100854.49;;;-4.27;54.90
50592;BME280;36548;50.506;30.834;2023-02-23T05:15:10;100854.64;;;-3.98;55.51
50592;BME280;36548;50.506;30.834;2023-02-23T05:16:19;100859.95;;;-3.84;53.58
50592;BME280;36548;50.506;30.834;2023-02-23T05:17:29;100860.05;;;-3.54;53.81
50592;BME280;36548;50.506;30.834;2023-02-23T05:18:38;100854.88;;;-3.25;53.31
50592;BME280;36548;50.506;30.834;2023-02-23T05:19:48;100866.30;;;-3.11;51.82
50592;BME280;36548;50.506;30.834;2023-02-23T05:21:02;100867.17;;;-2.81;52.67
50592;BME280;36548;50.506;30.834;2023-02-23T05:22:13;100863.66;;;-2.41;52.95
50592;BME280;36548;50.506;30.834;2023-02-23T05:23:22;100867.11;;;-2.08;49.60
50592;BME280;36548;50.506;30.834;2023-02-23T05:24:31;100861.75;;;-1.79;49.61
50592;BME280;36548;50.506;30.834;2023-02-23T05:25:40;100865.09;;;-1.47;49.20
50592;BME280;36548;50.506;30.834;2023-02-23T05:26:50;100866.63;;;-1.08;48.62
50592;BME280;36548;50.506;30.834;2023-02-23T05:27:58;100864.66;;;-0.76;47.34
50592;BME280;36548;50.506;30.834;2023-02-23T05:29:10;100870.48;;;-0.39;47.05
50592;BME280;36548;50.506;30.834;2023-02-23T05:30:21;100867.50;;;-0.06;45.36
50592;BME280;36548;50.506;30.834;2023-02-23T05:31:30;100878.61;;;0.22;45.15
50592;BME280;36548;50.506;30.834;2023-02-23T05:32:39;100883.54;;;0.53;45.33
50592;BME280;36548;50.506;30.834;2023-02-23T05:33:49;100878.64;;;0.89;44.83
50592;BME280;36548;50.506;30.834;2023-02-23T05:34:58;100879.03;;;1.21;43.51
50592;BME280;36548;50.506;30.834;2023-02-23T05:36:11;100874.09;;;1.53;43.66
50592;BME280;36548;50.506;30.834;2023-02-23T05:37:20;100878.00;;;1.82;42.09
50592;BME280;36548;50.506;30.834;2023-02-23T05:38:29;100879.12;;;2.16;42.62
50592;BME280;36548;50.506;30.834;2023-02-23T05:39:39;100889.17;;;2.44;40.50
50592;BME280;36548;50.506;30.834;2023-02-23T05:40:54;100883.01;;;2.43;38.79
50592;BME280;36548;50.506;30.834;2023-02-23T05:42:03;100884.98;;;2.32;39.82
50592;BME280;36548;50.506;30.834;2023-02-23T05:43:13;100893.61;;;2.43;40.64
50592;BME280;36548;50.506;30.834;2023-02-23T05:44:23;100895.67;;;2.71;40.77
50592;BME280;36548;50.506;30.834;2023-02-23T05:45:40;100893.70;;;2.81;38.98
50592;BME280;36548;50.506;30.834;2023-02-23T05:46:49;100890.41;;;2.69;38.08
50592;BME280;36548;50.506;30.834;2023-02-23T05:47:59;100894.25;;;2.54;37.46
50592;BME280;36548;50.506;30.834;2023-02-23T05:49:09;100896.98;;;2.50;38.16
50592;BME280;36548;50.506;30.834;2023-02-23T05:50:20;100905.89;;;2.47;38.04
50592;BME280;36548;50.506;30.834;2023-02-23T05:51:32;100902.84;;;2.66;39.38
50592;BME280;36548;50.506;30.834;2023-02-23T05:52:42;100904.45;;;2.73;37.99
50592;BME280;36548;50.506;30.834;2023-02-23T05:53:50;100911.33;;;2.82;38.11
50592;BME280;36548;50.506;30.834;2023-02-23T05:54:59;100912.42;;;3.12;38.85
50592;BME280;36548;50.506;30.834;2023-02-23T05:56:12;100906.66;;;3.32;37.83
50592;BME280;36548;50.506;30.834;2023-02-23T05:57:21;100899.13;;;3.51;37.39
50592;BME280;36548;50.506;30.834;2023-02-23T05:58:30;100903.23;;;3.63;37.11
50592;BME280;36548;50.506;30.834;2023-02-23T05:59:40;100906.62;;;3.70;36.59
50592;BME280;36548;50.506;30.834;2023-02-23T06:00:50;100907.13;;;3.84;37.82
50592;BME280;36548;50.506;30.834;2023-02-23T06:01:59;100918.69;;;3.82;35.98
50592;BME280;36548;50.506;30.834;2023-02-23T06:03:08;100917.88;;;3.80;36.76
50592;BME280;36548;50.506;30.834;2023-02-23T06:04:17;100911.97;;;3.68;36.84
50592;BME280;36548;50.506;30.834;2023-02-23T06:05:26;100911.33;;;3.58;36.51
50592;BME280;36548;50.506;30.834;2023-02-23T06:06:36;100913.59;;;3.38;36.44
50592;BME280;36548;50.506;30.834;2023-02-23T06:07:45;100916.00;;;3.11;36.34
50592;BME280;36548;50.506;30.834;2023-02-23T06:08:56;100919.79;;;2.99;37.00
50592;BME280;36548;50.506;30.834;2023-02-23T06:10:06;100920.65;;;3.00;37.51
50592;BME280;36548;50.506;30.834;2023-02-23T06:11:15;100925.95;;;3.01;37.62
50592;BME280;36548;50.506;30.834;2023-02-23T06:12:23;100925.05;;;3.01;37.11
50592;BME280;36548;50.506;30.834;2023-02-23T06:13:33;100933.09;;;2.98;37.05
50592;BME280;36548;50.506;30.834;2023-02-23T06:14:42;100941.38;;;2.82;36.54
50592;BME280;36548;50.506;30.834;2023-02-23T06:15:50;100935.48;;;2.69;37.04
50592;BME280;36548;50.506;30.834;2023-02-23T06:17:00;100933.91;;;2.59;37.14
50592;BME280;36548;50.506;30.834;2023-02-23T06:18:09;100927.59;;;2.65;37.98
50592;BME280;36548;50.506;30.834;2023-02-23T06:19:18;100940.48;;;2.82;38.44
50592;BME280;36548;50.506;30.834;2023-02-23T06:20:27;100943.22;;;2.79;36.47
50592;BME280;36548;50.506;30.834;2023-02-23T06:21:36;100940.03;;;2.63;36.54
50592;BME280;36548;50.506;30.834;2023-02-23T06:22:45;100940.38;;;2.46;36.27
50592;BME280;36548;50.506;30.834;2023-02-23T06:23:55;100941.48;;;2.34;37.16
50592;BME280;36548;50.506;30.834;2023-02-23T06:25:07;100945.13;;;2.28;37.65
50592;BME280;36548;50.506;30.834;2023-02-23T06:26:24;100942.13;;;2.45;37.71
50592;BME280;36548;50.506;30.834;2023-02-23T06:27:33;100953.86;;;2.33;37.51
50592;BME280;36548;50.506;30.834;2023-02-23T06:28:45;100952.94;;;2.34;37.33
50592;BME280;36548;50.506;30.834;2023-02-23T06:29:54;100952.27;;;2.23;36.78
50592;BME280;36548;50.506;30.834;2023-02-23T06:31:04;100953.39;;;2.11;37.17
50592;BME280;36548;50.506;30.834;2023-02-23T06:32:14;100957.02;;;2.04;37.10
50592;BME280;36548;50.506;30.834;2023-02-23T06:33:25;100953.73;;;1.91;36.96
50592;BME280;36548;50.506;30.834;2023-02-23T06:34:35;100954.77;;;1.82;37.14
50592;BME280;36548;50.506;30.834;2023-02-23T06:35:44;100952.36;;;1.68;37.32
50592;BME280;36548;50.506;30.834;2023-02-23T06:36:55;100960.41;;;1.61;37.35
50592;BME280;36548;50.506;30.834;2023-02-23T06:38:04;100965.19;;;1.37;37.46
50592;BME280;36548;50.506;30.834;2023-02-23T06:39:15;100954.73;;;1.29;38.02
50592;BME280;36548;50.506;30.834;2023-02-23T06:40:25;100955.91;;;1.10;38.21
50592;BME280;36548;50.506;30.834;2023-02-23T06:41:35;100956.00;;;1.02;38.21
50592;BME280;36548;50.506;30.834;2023-02-23T06:42:50;100961.38;;;0.94;38.48
50592;BME280;36548;50.506;30.834;2023-02-23T06:44:00;100966.91;;;0.76;38.69
50592;BME280;36548;50.506;30.834;2023-02-23T06:45:12;100972.22;;;0.74;39.04
50592;BME280;36548;50.506;30.834;2023-02-23T06:46:21;100970.66;;;0.58;38.59
50592;BME280;36548;50.506;30.834;2023-02-23T06:47:30;100968.02;;;0.58;39.09
50592;BME280;36548;50.506;30.834;2023-02-23T06:48:39;100966.25;;;0.57;39.47
50592;BME280;36548;50.506;30.834;2023-02-23T06:49:49;100965.37;;;0.58;39.34
50592;BME280;36548;50.506;30.834;2023-02-23T06:50:58;100966.25;;;0.57;39.54
50592;BME280;36548;50.506;30.834;2023-02-23T06:52:08;100967.16;;;0.54;39.11
50592;BME280;36548;50.506;30.834;2023-02-23T06:53:17;100971.66;;;0.47;39.26
50592;BME280;36548;50.506;30.834;2023-02-23T06:54:27;100966.61;;;0.26;39.45
50592;BME280;36548;50.506;30.834;2023-02-23T06:55:36;100965.84;;;0.14;39.89
50592;BME280;36548;50.506;30.834;2023-02-23T06:56:45;100964.12;;;0.10;40.16
50592;BME280;36548;50.506;30.834;2023-02-23T06:57:54;100962.33;;;0.12;40.12
50592;BME280;36548;50.506;30.834;2023-02-23T06:59:02;100962.41;;;0.06;39.79
50592;BME280;36548;50.506;30.834;2023-02-23T07:00:13;100960.73;;;-0.03;39.72
50592;BME280;36548;50.506;30.834;2023-02-23T07:01:24;100960.77;;;-0.09;40.04
50592;BME280;36548;50.506;30.834;2023-02-23T07:02:33;100967.95;;;-0.23;39.59
50592;BME280;36548;50.506;30.834;2023-02-23T07:03:43;100966.28;;;-0.35;40.17
50592;BME280;36548;50.506;30.834;2023-02-23T07:04:52;100971.56;;;-0.37;40.65
50592;BME280;36548;50.506;30.834;2023-02-23T07:06:01;100963.73;;;-0.47;40.42
50592;BME280;36548;50.506;30.834;2023-02-23T07:07:12;100963.72;;;-0.46;40.74